Time;durP1;ratioP1;P1;durP2;ratioP2;P2;SDS_P1;SDS_P2;PMS_P1;PMS_P2;Temp;Humidity;BMP_temperature;BMP_pressure;BME280_temperature;BME280_humidity;BME280_pressure;Samples;Min_cycle;Max_cycle;Signal;HPM_P1;HPM_P2
2023/09/13 00:02:20;;;;;;;10.55;8.27;;;21.00;99.90;;;-141.84;84.09;21314.00;5036469;28;20781;-64
2023/09/13 00:04:49;;;;;;;14.25;10.15;;;20.80;99.90;;;-141.84;86.17;21250.97;5044308;28;20225;-63
2023/09/13 00:07:18;;;;;;;11.38;10.18;;;20.70;99.90;;;-141.84;88.45;21192.03;5043845;28;20221;-63
2023/09/13 00:09:46;;;;;;;11.45;10.13;;;20.50;99.90;;;-141.84;90.02;21057.84;5043775;28;20216;-64
2023/09/13 00:12:15;;;;;;;9.10;8.20;;;20.30;99.90;;;-141.84;90.98;21045.63;5035828;28;20228;-65
2023/09/13 00:14:44;;;;;;;8.07;7.38;;;20.20;99.90;;;-141.84;90.60;20980.59;5043566;28;20261;-63
2023/09/13 00:17:12;;;;;;;10.82;8.48;;;20.00;99.90;;;-141.84;91.57;20946.03;5042981;28;20651;-64
2023/09/13 00:19:41;;;;;;;10.15;7.93;;;19.80;99.90;;;-141.84;93.03;20929.75;5043716;28;20312;-64
2023/09/13 00:22:09;;;;;;;11.93;8.50;;;19.70;99.90;;;-141.84;93.56;20915.53;5043093;28;20312;-63
2023/09/13 00:24:37;;;;;;;10.80;9.23;;;19.50;99.90;;;-141.84;94.66;20929.75;5017641;28;20319;-64
2023/09/13 00:27:06;;;;;;;9.88;8.40;;;19.50;99.90;;;-141.84;95.27;20895.19;5037457;28;20735;-64
2023/09/13 00:29:34;;;;;;;9.13;8.10;;;19.50;99.90;;;-141.84;94.35;20880.97;5043564;28;20234;-64
2023/09/13 00:32:04;;;;;;;9.45;8.57;;;19.50;99.90;;;-141.84;93.97;20885.03;5043029;28;20798;-65
2023/09/13 00:34:33;;;;;;;9.55;8.65;;;19.50;99.90;;;-141.84;93.97;20866.75;5035880;28;20225;-64
2023/09/13 00:37:01;;;;;;;10.15;9.15;;;19.50;99.90;;;-141.84;95.31;20842.34;5043112;28;20665;-64
2023/09/13 00:39:29;;;;;;;11.32;8.75;;;19.30;99.90;;;-141.84;95.39;20832.19;5043782;28;20292;-64
2023/09/13 00:41:58;;;;;;;10.95;9.27;;;19.40;99.90;;;-141.84;95.66;20781.38;5042769;28;20225;-64
2023/09/13 00:44:26;;;;;;;12.57;10.13;;;19.30;99.90;;;-141.84;96.80;20793.56;5035560;28;20233;-63
2023/09/13 00:46:55;;;;;;;12.40;10.10;;;19.30;99.90;;;-141.84;97.35;20803.72;5043326;28;20256;-63
2023/09/13 00:49:25;;;;;;;10.85;9.85;;;19.30;99.90;;;-141.84;96.96;20801.69;5042534;28;20260;-64
2023/09/13 00:51:58;;;;;;;11.77;10.40;;;19.30;99.90;;;-141.84;97.25;20828.13;5043164;28;20264;-64
2023/09/13 00:54:27;;;;;;;11.20;10.10;;;19.30;99.90;;;-141.84;97.37;20771.19;5035449;28;20241;-63
2023/09/13 00:56:56;;;;;;;12.60;10.68;;;19.30;99.90;;;-141.84;96.85;20830.16;5042524;28;20253;-64
2023/09/13 00:59:26;;;;;;;12.27;10.27;;;19.30;99.90;;;-141.84;97.10;20771.19;5042678;28;20284;-63
2023/09/13 01:01:54;;;;;;;11.48;10.27;;;19.20;99.90;;;-141.84;97.10;20765.09;5042779;28;20221;-66
2023/09/13 01:04:24;;;;;;;11.70;10.15;;;19.20;99.90;;;-141.84;97.65;20759.00;5035798;28;20239;-63
2023/09/13 01:06:53;;;;;;;11.35;10.15;;;19.20;99.90;;;-141.84;96.93;20775.25;5042927;28;20326;-64
2023/09/13 01:09:22;;;;;;;13.68;10.82;;;19.20;99.90;;;-141.84;97.56;20779.31;5043363;28;20260;-63
2023/09/13 01:11:51;;;;;;;11.45;10.32;;;19.10;99.90;;;-141.84;97.73;20742.75;5042221;28;20320;-64
2023/09/13 01:14:21;;;;;;;11.68;10.48;;;19.10;99.90;;;-141.84;97.55;20716.31;5034782;28;20228;-64
2023/09/13 01:17:01;;;;;;;10.85;9.73;;;19.10;99.90;;;-141.84;98.10;20765.09;5042948;28;20264;-63
2023/09/13 01:19:51;;;;;;;10.57;9.65;;;19.10;99.90;;;-141.84;97.51;20767.13;5034092;28;20757;-63
2023/09/13 01:23:11;;;;;;;10.55;9.55;;;19.10;99.90;;;-141.84;96.35;20759.00;5015853;28;20314;-64
2023/09/13 01:26:09;;;;;;;8.70;7.70;;;19.10;99.90;;;-141.84;93.58;20785.44;5024840;28;20305;-64
2023/09/13 01:28:46;;;;;;;9.48;8.45;;;19.10;99.90;;;-141.84;95.02;20708.19;5034943;28;20395;-63
2023/09/13 01:31:18;;;;;;;9.57;8.65;;;19.00;99.90;;;-141.84;96.67;20720.38;5042305;28;20225;-64
2023/09/13 01:33:46;;;;;;;10.10;8.80;;;19.00;99.90;;;-141.84;97.46;20752.91;5042284;28;20745;-64
2023/09/13 01:36:15;;;;;;;10.00;9.10;;;19.00;99.90;;;-141.84;97.99;20685.81;5035896;28;20201;-64
2023/09/13 01:38:44;;;;;;;9.82;8.82;;;19.00;99.90;;;-141.84;98.50;20649.22;5042304;28;20233;-64
2023/09/13 01:41:22;;;;;;;10.00;9.00;;;19.00;99.90;;;-141.84;98.91;20695.97;5042381;28;20224;-64
2023/09/13 01:43:53;;;;;;;11.00;9.00;;;19.00;99.90;;;-141.84;98.59;20677.69;5042123;28;20658;-64
2023/09/13 01:46:31;;;;;;;9.65;8.68;;;19.00;99.90;;;-141.84;99.42;20643.13;5034724;28;20229;-64
2023/09/13 01:49:03;;;;;;;13.90;9.48;;;19.00;99.90;;;-141.84;100.00;20610.59;5042504;28;20209;-63
2023/09/13 01:51:33;;;;;;;10.80;9.80;;;19.00;99.90;;;-141.84;100.00;20671.59;5043204;28;20217;-64
2023/09/13 01:54:02;;;;;;;10.63;9.50;;;19.00;99.90;;;-141.84;100.00;20628.91;5042034;28;20234;-64
2023/09/13 01:56:30;;;;;;;10.57;9.57;;;19.00;99.90;;;-141.84;100.00;20602.47;5033201;28;20312;-64
2023/09/13 01:59:00;;;;;;;11.07;10.07;;;19.00;99.90;;;-141.84;100.00;20610.59;5042151;28;20320;-64
2023/09/13 02:01:29;;;;;;;10.95;9.25;;;19.00;99.90;;;-141.84;100.00;20610.59;5042184;28;20309;-64
2023/09/13 02:03:57;;;;;;;10.43;9.52;;;19.00;99.90;;;-141.84;100.00;20618.72;5042169;28;20677;-64
2023/09/13 02:06:26;;;;;;;10.27;9.32;;;19.00;99.90;;;-141.84;100.00;20616.69;5035186;28;20585;-63
2023/09/13 02:08:54;;;;;;;11.57;8.82;;;18.90;99.90;;;-141.84;100.00;20586.22;5042168;28;20648;-63
2023/09/13 02:11:22;;;;;;;10.90;9.95;;;18.90;99.90;;;-141.84;100.00;20606.53;5041883;28;20670;-63
2023/09/13 02:13:51;;;;;;;11.05;10.05;;;18.90;99.90;;;-141.84;100.00;20580.13;5041786;28;20256;-63
2023/09/13 02:16:22;;;;;;;10.85;9.85;;;18.80;99.90;;;-141.84;100.00;20563.84;5019879;28;20229;-64
2023/09/13 02:18:50;;;;;;;9.90;9.00;;;18.80;99.90;;;-141.84;100.00;20519.13;5022215;28;20214;-63
2023/09/13 02:21:19;;;;;;;9.68;8.73;;;18.80;99.90;;;-141.84;100.00;20511.00;5022829;28;20682;-65
2023/09/13 02:23:47;;;;;;;9.52;8.73;;;18.70;99.90;;;-141.84;100.00;20498.81;5022260;28;20271;-64
2023/09/13 02:26:23;;;;;;;9.57;8.25;;;18.70;99.90;;;-141.84;100.00;20513.03;5027327;28;20249;-64
2023/09/13 02:28:51;;;;;;;9.52;8.63;;;18.70;99.90;;;-141.84;100.00;20561.81;5041693;28;20792;-64
2023/09/13 02:31:27;;;;;;;8.75;8.00;;;18.70;99.90;;;-141.84;100.00;20492.72;5041507;28;20697;-63
2023/09/13 02:33:56;;;;;;;8.55;7.82;;;18.60;99.90;;;-141.84;100.00;20525.22;5041618;28;20381;-63
2023/09/13 02:36:24;;;;;;;8.48;7.68;;;18.60;99.90;;;-141.84;100.00;20527.25;5034838;28;20263;-63
2023/09/13 02:38:54;;;;;;;8.52;7.82;;;18.50;99.90;;;-141.84;100.00;20488.63;5042673;28;20328;-64
2023/09/13 02:41:22;;;;;;;9.63;7.30;;;18.40;99.90;;;-141.84;100.00;20460.19;5045287;28;20700;-64
2023/09/13 02:43:50;;;;;;;7.93;7.22;;;18.40;99.90;;;-141.84;100.00;20480.50;5045489;28;20697;-63
2023/09/13 02:46:18;;;;;;;7.93;7.22;;;18.40;99.90;;;-141.84;100.00;20435.78;5037411;28;20655;-63
2023/09/13 02:48:48;;;;;;;9.13;7.20;;;18.40;99.90;;;-141.84;100.00;20415.47;5045129;28;20209;-64
2023/09/13 02:51:16;;;;;;;9.10;8.10;;;18.30;99.90;;;-141.84;100.00;20417.50;5045725;28;20267;-63
2023/09/13 02:53:44;;;;;;;8.95;7.82;;;18.30;99.90;;;-141.84;100.00;20454.09;5044940;28;20807;-64
2023/09/13 02:56:13;;;;;;;8.90;7.30;;;18.20;99.90;;;-141.84;100.00;20439.84;5041909;28;20229;-65
2023/09/13 02:58:41;;;;;;;8.73;6.80;;;18.30;99.90;;;-141.84;100.00;20393.09;5043688;28;20233;-63
2023/09/13 03:01:10;;;;;;;8.27;7.32;;;18.20;99.90;;;-141.84;100.00;20342.28;5045236;28;20287;-63
2023/09/13 03:03:39;;;;;;;9.48;7.68;;;18.10;99.90;;;-141.84;100.00;20370.75;5045489;28;20593;-64
2023/09/13 03:06:13;;;;;;;8.05;7.25;;;18.10;99.90;;;-141.84;100.00;20348.38;5045731;28;20312;-64
2023/09/13 03:08:42;;;;;;;8.68;7.50;;;18.20;99.90;;;-141.84;100.00;20283.34;5045453;28;20221;-64
2023/09/13 03:11:14;;;;;;;9.75;7.85;;;18.10;99.90;;;-141.84;100.00;20387.00;5041844;28;20304;-63
2023/09/13 03:13:44;;;;;;;10.60;8.98;;;18.10;99.90;;;-141.84;100.00;20399.19;5025076;28;20316;-63
2023/09/13 03:16:14;;;;;;;10.00;8.30;;;18.10;99.90;;;-141.84;100.00;20411.41;5023138;28;20725;-64
2023/09/13 03:18:43;;;;;;;9.48;7.55;;;18.20;99.90;;;-141.84;100.00;20350.41;5024865;28;20205;-64
2023/09/13 03:21:13;;;;;;;12.02;8.50;;;18.10;99.90;;;-141.84;100.00;20342.28;5025566;28;20746;-65
2023/09/13 03:23:44;;;;;;;9.80;8.82;;;18.10;99.90;;;-141.84;100.00;20419.53;5025779;28;20265;-63
2023/09/13 03:26:15;;;;;;;9.25;8.43;;;18.10;99.90;;;-141.84;100.00;20346.34;5035415;28;20232;-64
2023/09/13 03:28:45;;;;;;;9.27;8.38;;;18.10;99.90;;;-141.84;100.00;20387.00;5044546;28;20344;-64
2023/09/13 03:31:15;;;;;;;9.23;8.27;;;18.00;99.90;;;-141.84;100.00;20393.09;5044353;28;20638;-63
2023/09/13 03:33:45;;;;;;;9.15;8.02;;;18.00;99.90;;;-141.84;100.00;20409.38;5044253;28;20275;-64
2023/09/13 03:36:17;;;;;;;9.95;8.95;;;18.00;99.90;;;-141.84;100.00;20401.22;5039108;28;20209;-63
2023/09/13 03:38:47;;;;;;;10.05;8.75;;;18.00;99.90;;;-141.84;100.00;20378.88;5044315;28;20704;-63
2023/09/13 03:41:17;;;;;;;11.05;8.02;;;18.00;99.90;;;-141.84;100.00;20305.69;5044432;28;20231;-64
2023/09/13 03:43:46;;;;;;;9.27;8.25;;;17.90;99.90;;;-141.84;100.00;20358.56;5044275;28;20742;-63
2023/09/13 03:46:14;;;;;;;8.88;7.97;;;17.80;99.90;;;-141.84;100.00;20352.44;5036479;28;20231;-64
2023/09/13 03:48:43;;;;;;;8.55;7.57;;;17.80;99.90;;;-141.84;100.00;20330.09;5044233;28;20652;-65
2023/09/13 03:51:11;;;;;;;9.25;8.13;;;17.80;99.90;;;-141.84;100.00;20309.75;5044280;28;20197;-63
2023/09/13 03:53:41;;;;;;;11.25;8.73;;;17.70;99.90;;;-141.84;100.00;20346.34;5043918;28;20705;-64
2023/09/13 03:56:10;;;;;;;8.80;7.90;;;17.70;99.90;;;-141.84;100.00;20346.34;5043564;28;20231;-63
2023/09/13 03:58:38;;;;;;;9.80;8.20;;;17.70;99.90;;;-141.84;100.00;20358.56;5038266;28;20603;-64
2023/09/13 04:01:07;;;;;;;9.43;8.52;;;17.70;99.90;;;-141.84;100.00;20380.91;5043954;28;20233;-64
2023/09/13 04:03:36;;;;;;;9.75;8.40;;;17.70;99.90;;;-141.84;100.00;20358.56;5044195;28;20217;-64
2023/09/13 04:06:04;;;;;;;9.43;8.38;;;17.70;99.90;;;-141.84;100.00;20330.09;5043618;28;20233;-63
2023/09/13 04:08:33;;;;;;;11.25;9.02;;;17.60;99.90;;;-141.84;100.00;20315.88;5036009;28;20538;-64
2023/09/13 04:11:02;;;;;;;11.00;8.98;;;17.60;99.90;;;-141.84;100.00;20378.88;5044137;28;20259;-64
2023/09/13 04:13:31;;;;;;;11.68;8.48;;;17.60;99.90;;;-141.84;98.58;20413.44;5043810;28;20245;-64
2023/09/13 04:16:02;;;;;;;11.48;10.30;;;17.60;99.90;;;-141.84;99.06;20399.19;5043661;28;20300;-64
2023/09/13 04:18:31;;;;;;;10.55;8.90;;;17.60;99.90;;;-141.84;99.23;20378.88;5036054;28;20208;-64
2023/09/13 04:20:59;;;;;;;11.27;9.77;;;17.60;99.90;;;-141.84;99.59;20307.72;5043504;28;20320;-64
2023/09/13 04:23:28;;;;;;;10.65;8.10;;;17.50;99.90;;;-141.84;99.86;20321.97;5043567;28;20295;-64
2023/09/13 04:25:56;;;;;;;9.98;8.38;;;17.50;99.90;;;-141.84;100.00;20326.03;5043187;28;20228;-63
2023/09/13 04:28:26;;;;;;;9.27;8.27;;;17.50;99.90;;;-141.84;100.00;20267.09;5035899;28;20221;-64
2023/09/13 04:30:59;;;;;;;9.45;8.52;;;17.50;99.90;;;-141.84;100.00;20263.00;5042150;28;20685;-64
2023/09/13 04:33:50;;;;;;;12.70;9.05;;;17.40;99.90;;;-141.84;100.00;20285.38;5043783;28;20222;-64
2023/09/13 04:36:18;;;;;;;9.55;8.05;;;17.40;99.90;;;-141.84;100.00;20287.41;5035576;28;20229;-65
2023/09/13 04:38:48;;;;;;;11.55;8.20;;;17.40;99.90;;;-141.84;100.00;20277.25;5043449;28;20991;-64
2023/09/13 04:41:17;;;;;;;11.63;8.38;;;17.30;99.90;;;-141.84;100.00;20246.75;5043114;28;20225;-64
2023/09/13 04:43:47;;;;;;;9.57;8.43;;;17.30;99.90;;;-141.84;100.00;20269.13;5043035;28;20658;-64
2023/09/13 04:46:15;;;;;;;11.50;8.18;;;17.30;99.90;;;-141.84;100.00;20301.63;5035343;28;20808;-63
2023/09/13 04:48:44;;;;;;;9.63;7.95;;;17.30;99.90;;;-141.84;100.00;20313.84;5042841;28;20201;-64
2023/09/13 04:51:12;;;;;;;12.07;8.25;;;17.30;99.90;;;-141.84;100.00;20338.22;5043695;28;20267;-64
2023/09/13 04:53:43;;;;;;;10.88;7.85;;;17.40;99.90;;;-141.84;100.00;20258.94;5042688;28;20229;-64
2023/09/13 04:56:11;;;;;;;11.65;8.20;;;17.30;99.90;;;-141.84;100.00;20244.72;5041345;28;20750;-62
2023/09/13 04:58:40;;;;;;;12.00;8.35;;;17.30;99.90;;;-141.84;100.00;20285.38;5040217;28;20308;-64
2023/09/13 05:01:09;;;;;;;12.45;8.25;;;17.30;99.90;;;-141.84;100.00;20271.16;5042461;28;20233;-63
2023/09/13 05:03:38;;;;;;;10.43;8.32;;;17.30;99.90;;;-141.84;100.00;20267.09;5042809;28;20198;-64
2023/09/13 05:06:06;;;;;;;10.15;7.88;;;17.30;99.90;;;-141.84;100.00;20240.66;5042692;28;20221;-64
2023/09/13 05:08:37;;;;;;;11.95;8.60;;;17.30;99.90;;;-141.84;100.00;20260.97;5035078;28;20236;-64
2023/09/13 05:11:05;;;;;;;9.38;7.75;;;17.30;99.90;;;-141.84;100.00;20313.84;5043057;28;20229;-65
2023/09/13 05:13:33;;;;;;;9.10;7.95;;;17.30;99.90;;;-141.84;100.00;20236.59;5042831;28;20628;-67
2023/09/13 05:16:01;;;;;;;9.30;8.20;;;17.30;99.90;;;-141.84;100.00;20289.44;5042881;28;20290;-65
2023/09/13 05:18:30;;;;;;;8.77;7.57;;;17.30;99.90;;;-141.84;100.00;20208.13;5035054;28;20271;-64
2023/09/13 05:20:59;;;;;;;9.68;7.57;;;17.30;99.90;;;-141.84;100.00;20224.41;5042549;28;20302;-65
2023/09/13 05:23:27;;;;;;;9.70;8.25;;;17.40;99.90;;;-141.84;100.00;20269.13;5042618;28;20324;-64
2023/09/13 05:25:56;;;;;;;9.48;8.57;;;17.40;99.90;;;-141.84;100.00;20250.81;5042287;28;20229;-63
2023/09/13 05:28:25;;;;;;;9.30;7.35;;;17.40;99.90;;;-141.84;100.00;20238.63;5035426;28;20320;-66
2023/09/13 05:30:55;;;;;;;10.45;8.52;;;17.40;99.90;;;-141.84;100.00;20271.16;5042344;28;20676;-64
2023/09/13 05:33:25;;;;;;;10.25;7.80;;;17.50;99.90;;;-141.84;100.00;20354.47;5042869;28;20236;-64
2023/09/13 05:35:54;;;;;;;10.48;8.07;;;17.50;99.90;;;-141.84;99.17;20317.91;5042435;28;20256;-64
2023/09/13 05:38:23;;;;;;;13.43;8.15;;;17.60;99.90;;;-141.84;98.66;20348.38;5034669;28;20287;-63
2023/09/13 05:40:51;;;;;;;8.77;7.10;;;17.70;99.90;;;-141.84;95.58;20435.78;5042359;28;20286;-64
2023/09/13 05:43:19;;;;;;;10.85;7.30;;;17.70;99.90;;;-141.84;94.56;20435.78;5022280;28;20312;-66
2023/09/13 05:45:52;;;;;;;10.63;7.43;;;17.80;99.90;;;-141.84;92.28;20480.50;5022360;28;20229;-63
2023/09/13 05:48:21;;;;;;;11.55;7.55;;;17.90;99.90;;;-141.84;93.20;20468.31;5015728;28;20201;-64
2023/09/13 05:50:49;;;;;;;10.52;7.32;;;18.00;99.90;;;-141.84;93.69;20500.84;5042027;28;20626;-64
2023/09/13 05:53:19;;;;;;;8.00;6.25;;;18.00;99.90;;;-141.84;92.52;20482.53;5042305;28;20245;-65
2023/09/13 05:55:48;;;;;;;9.27;6.55;;;18.10;99.90;;;-141.84;91.17;20545.56;5039055;28;20237;-68
2023/09/13 05:58:16;;;;;;;8.30;6.85;;;18.20;99.90;;;-141.84;91.38;20535.41;5020920;28;20816;-63
2023/09/13 06:00:48;;;;;;;11.02;7.18;;;18.30;99.90;;;-141.84;91.93;20559.78;5041229;28;20217;-61
2023/09/13 06:03:18;;;;;;;10.85;6.40;;;18.30;99.90;;;-141.84;90.38;20590.28;5042496;28;20220;-62
2023/09/13 06:05:49;;;;;;;9.32;6.95;;;18.40;99.90;;;-141.84;89.97;20571.97;5041014;28;20240;-62
2023/09/13 06:08:19;;;;;;;8.55;6.53;;;18.50;99.90;;;-141.84;88.88;20637.03;5021598;28;20681;-63
2023/09/13 06:10:47;;;;;;;7.40;6.13;;;18.60;99.90;;;-141.84;88.68;20612.63;5021855;28;20226;-63
2023/09/13 06:13:16;;;;;;;6.57;5.88;;;18.70;99.90;;;-141.84;86.96;20677.69;5022261;28;20225;-63
2023/09/13 06:15:44;;;;;;;8.95;5.80;;;18.80;99.90;;;-141.84;87.04;20685.81;5025397;28;20813;-62
2023/09/13 06:18:12;;;;;;;7.47;5.95;;;18.80;99.90;;;-141.84;86.56;20695.97;5024552;28;20294;-63
2023/09/13 06:20:41;;;;;;;8.82;6.30;;;18.90;99.90;;;-141.84;85.40;20754.94;5023480;28;20523;-62
2023/09/13 06:23:38;;;;;;;7.65;5.50;;;19.00;99.90;;;-141.84;85.77;20720.38;5026064;28;20317;-65
2023/09/13 06:26:08;;;;;;;7.05;5.32;;;19.00;99.90;;;-141.84;86.10;20736.63;5038563;28;20235;-63
2023/09/13 06:28:36;;;;;;;6.97;5.00;;;19.10;99.90;;;-141.84;85.09;20750.88;5038408;28;20225;-64
2023/09/13 06:31:04;;;;;;;7.78;5.53;;;19.20;99.90;;;-141.84;85.85;20781.38;5034026;28;20356;-63
2023/09/13 06:33:33;;;;;;;6.80;5.15;;;19.20;99.90;;;-141.84;85.20;20744.78;5025639;28;20342;-63
2023/09/13 06:36:06;;;;;;;8.50;5.22;;;19.30;99.90;;;-141.84;85.77;20763.06;5024558;28;20248;-63
2023/09/13 06:38:37;;;;;;;5.90;4.90;;;19.30;99.90;;;-141.84;85.54;20718.34;5031090;28;20528;-64
2023/09/13 06:41:06;;;;;;;8.45;5.40;;;19.30;99.90;;;-141.84;86.77;20728.50;5044761;28;20263;-62
2023/09/13 06:43:36;;;;;;;7.43;5.32;;;19.20;99.90;;;-141.84;83.25;20793.56;5045401;28;20229;-64
2023/09/13 06:46:05;;;;;;;6.68;4.97;;;19.40;99.90;;;-141.84;83.24;20826.09;5045074;28;20252;-63
2023/09/13 06:48:37;;;;;;;6.28;5.22;;;19.40;99.90;;;-141.84;82.63;20866.75;5037489;28;20241;-63
2023/09/13 06:51:08;;;;;;;7.22;4.80;;;19.50;99.90;;;-141.84;83.16;20842.34;5045242;28;20225;-64
2023/09/13 06:53:40;;;;;;;6.10;5.05;;;19.50;99.90;;;-141.84;83.31;20870.81;5046086;28;20272;-63
2023/09/13 06:56:09;;;;;;;5.65;5.07;;;19.60;99.90;;;-141.84;82.49;20891.13;5043520;28;20363;-64
2023/09/13 06:58:40;;;;;;;5.63;4.65;;;19.70;99.90;;;-141.84;82.45;20895.19;5044686;28;20230;-64
2023/09/13 07:01:13;;;;;;;5.45;4.75;;;19.80;99.90;;;-141.84;81.37;20952.13;5045320;28;20231;-64
2023/09/13 07:04:02;;;;;;;8.38;4.72;;;19.90;99.90;;;-141.84;81.30;20952.13;5044320;28;20720;-64
2023/09/13 07:06:36;;;;;;;4.60;4.10;;;19.90;99.90;;;-141.84;82.28;20919.59;5037510;28;20200;-64
2023/09/13 07:09:06;;;;;;;4.57;4.13;;;20.00;99.90;;;-141.84;81.37;20923.66;5026933;28;20258;-64
2023/09/13 07:11:34;;;;;;;4.18;3.80;;;19.90;99.90;;;-141.84;80.99;20956.19;5024156;28;20237;-64
2023/09/13 07:14:02;;;;;;;5.30;3.53;;;20.10;99.90;;;-141.84;80.25;20988.72;5025186;28;20686;-64
2023/09/13 07:16:31;;;;;;;4.15;3.15;;;20.10;99.90;;;-141.84;77.67;21098.50;5016793;28;20241;-64
2023/09/13 07:18:59;;;;;;;4.07;3.30;;;20.20;99.90;;;-141.84;78.35;21096.47;5024726;28;20216;-64
2023/09/13 07:21:31;;;;;;;6.70;3.75;;;20.30;99.90;;;-141.84;79.11;21082.25;5024805;28;20206;-64
2023/09/13 07:23:59;;;;;;;5.05;3.15;;;20.40;99.90;;;-141.84;77.70;21129.00;5024312;28;20240;-65
2023/09/13 07:26:29;;;;;;;4.32;2.85;;;20.30;99.90;;;-141.84;78.02;21141.19;5030263;28;20229;-63
2023/09/13 07:28:57;;;;;;;4.97;2.75;;;20.50;99.90;;;-141.84;78.13;21163.56;5044069;28;20283;-65
2023/09/13 07:31:25;;;;;;;3.78;2.60;;;20.50;99.90;;;-141.84;76.64;21194.06;5044266;28;20231;-64
2023/09/13 07:33:54;;;;;;;6.55;2.75;;;20.70;99.90;;;-141.84;75.24;21263.19;5042435;28;20216;-63
2023/09/13 07:36:24;;;;;;;2.83;2.58;;;20.80;99.90;;;-141.84;76.46;21216.41;5036833;28;20226;-63
2023/09/13 07:38:53;;;;;;;2.97;2.67;;;20.80;99.90;;;-141.84;77.14;21187.97;5044331;28;20229;-64
2023/09/13 07:41:21;;;;;;;2.42;2.17;;;20.80;99.90;;;-141.84;75.31;21236.75;5043339;28;20283;-63
2023/09/13 07:43:50;;;;;;;4.70;2.30;;;20.90;99.90;;;-141.84;75.18;21265.22;5044116;28;20288;-63
2023/09/13 07:46:18;;;;;;;2.63;2.25;;;21.00;99.90;;;-141.84;73.37;21366.88;5036490;28;20225;-64
2023/09/13 07:48:47;;;;;;;3.03;2.50;;;21.20;99.90;;;-141.84;72.66;21407.53;5043658;28;20206;-63
2023/09/13 07:51:15;;;;;;;2.63;2.30;;;21.30;99.90;;;-141.84;72.75;21358.75;5023857;28;20264;-64
2023/09/13 07:53:43;;;;;;;3.10;2.33;;;21.20;99.90;;;-141.84;73.83;21352.63;5038191;28;20372;-62
2023/09/13 07:56:11;;;;;;;2.97;2.47;;;21.20;99.90;;;-141.84;73.66;21399.41;5043100;28;20578;-61
2023/09/13 07:58:40;;;;;;;3.28;2.70;;;21.10;99.90;;;-141.84;73.53;21387.19;5042241;28;20229;-61
2023/09/13 08:01:09;;;;;;;3.58;2.83;;;21.30;99.90;;;-141.84;73.27;21391.28;5028571;28;20222;-60
2023/09/13 08:03:37;;;;;;;4.57;3.75;;;21.40;99.90;;;-141.84;73.14;21407.53;5024472;28;20238;-61
2023/09/13 08:06:06;;;;;;;3.83;3.53;;;21.40;99.90;;;-141.84;73.05;21405.50;5023366;28;20229;-64
2023/09/13 08:08:34;;;;;;;4.82;3.92;;;21.40;99.90;;;-141.84;73.79;21397.38;5029557;28;20888;-63
2023/09/13 08:11:03;;;;;;;4.45;4.15;;;21.40;99.90;;;-141.84;75.10;21301.81;5043431;28;20235;-64
2023/09/13 08:13:31;;;;;;;6.20;4.75;;;21.30;99.90;;;-141.84;74.78;21318.06;5043807;28;20228;-65
2023/09/13 08:15:59;;;;;;;4.28;3.97;;;21.10;99.90;;;-141.84;74.93;21362.81;5043383;28;20221;-63
2023/09/13 08:18:29;;;;;;;4.45;4.05;;;21.10;99.90;;;-141.84;74.26;21379.06;5036060;28;20266;-64
2023/09/13 08:20:57;;;;;;;4.63;4.13;;;21.20;99.90;;;-141.84;74.79;21328.25;5043248;28;20286;-63
2023/09/13 08:23:25;;;;;;;4.15;3.85;;;21.30;99.90;;;-141.84;75.07;21383.13;5043303;28;20225;-64
2023/09/13 08:25:53;;;;;;;3.92;3.58;;;21.30;99.90;;;-141.84;74.37;21476.66;5041699;28;20276;-62
2023/09/13 08:28:23;;;;;;;3.70;3.40;;;21.50;99.90;;;-141.84;72.73;21551.91;5015706;28;20301;-63
2023/09/13 08:30:51;;;;;;;4.20;3.85;;;21.70;99.90;;;-141.84;70.73;21692.19;5035434;28;20657;-62
2023/09/13 08:33:19;;;;;;;4.45;3.95;;;21.90;99.90;;;-141.84;69.52;21808.09;5043453;28;20213;-62
2023/09/13 08:35:49;;;;;;;4.03;3.72;;;22.30;99.90;;;-141.84;68.38;21799.97;5042656;28;20727;-62
2023/09/13 08:38:17;;;;;;;3.60;3.30;;;22.40;99.90;;;-141.84;69.06;21753.19;5035271;28;20233;-62
2023/09/13 08:40:48;;;;;;;3.40;3.10;;;22.40;99.90;;;-141.84;70.94;21578.31;5042469;28;20700;-61
2023/09/13 08:43:18;;;;;;;3.47;2.88;;;22.10;99.90;;;-141.84;72.01;21537.66;5042721;28;20308;-64
2023/09/13 08:45:51;;;;;;;3.20;2.85;;;22.00;99.90;;;-141.84;71.83;21590.53;5042766;28;20201;-63
2023/09/13 08:48:21;;;;;;;4.35;3.22;;;21.90;99.90;;;-141.84;70.82;21623.06;5035012;28;20396;-62
2023/09/13 08:50:50;;;;;;;2.92;2.72;;;22.00;99.90;;;-141.84;71.86;21596.63;5042560;28;20275;-65
2023/09/13 08:53:20;;;;;;;3.55;2.97;;;22.10;99.90;;;-141.84;70.54;21639.31;5042321;28;20670;-65
2023/09/13 08:55:51;;;;;;;4.03;2.72;;;22.20;99.90;;;-141.84;71.21;21619.00;5042605;28;20231;-64
2023/09/13 08:58:19;;;;;;;2.95;2.40;;;22.00;99.90;;;-141.84;71.90;21578.31;5035290;28;20229;-66
2023/09/13 09:00:52;;;;;;;2.70;2.50;;;22.10;99.90;;;-141.84;70.92;21692.19;5037651;28;20214;-64
2023/09/13 09:03:24;;;;;;;2.35;2.15;;;22.10;99.90;;;-141.84;69.84;21724.72;5023089;28;20213;-65
2023/09/13 09:05:56;;;;;;;3.03;2.30;;;22.30;99.90;;;-141.84;69.87;21749.13;5022727;28;20712;-65
2023/09/13 09:08:26;;;;;;;2.45;2.25;;;22.40;99.90;;;-141.84;69.34;21781.66;5027435;28;20248;-65
2023/09/13 09:10:59;;;;;;;2.25;2.13;;;22.40;99.90;;;-141.84;69.67;21704.38;5042674;28;20229;-61
2023/09/13 09:13:30;;;;;;;2.42;2.22;;;22.50;99.90;;;-141.84;70.56;21702.34;5042513;28;20703;-64
2023/09/13 09:16:01;;;;;;;3.55;2.40;;;22.40;99.90;;;-141.84;67.97;21806.06;5042322;28;20221;-64
2023/09/13 09:18:35;;;;;;;2.58;2.38;;;22.60;99.90;;;-141.84;66.72;21952.47;5034869;28;20668;-64
2023/09/13 09:21:05;;;;;;;2.60;2.40;;;22.90;99.90;;;-141.84;65.83;22017.53;5041941;28;20308;-64
2023/09/13 09:23:38;;;;;;;3.17;2.50;;;23.10;99.90;;;-141.84;65.83;21956.53;5042136;28;20328;-66
2023/09/13 09:26:06;;;;;;;4.13;1.90;;;23.00;99.90;;;-141.84;67.63;21891.47;5042052;28;20311;-64
2023/09/13 09:28:34;;;;;;;2.45;2.13;;;22.90;99.90;;;-141.84;68.10;21877.22;5034949;28;20252;-65
2023/09/13 09:31:03;;;;;;;2.67;2.47;;;22.70;99.90;;;-141.84;67.91;21836.56;5028997;28;20229;-64
2023/09/13 09:33:37;;;;;;;2.30;2.10;;;22.70;99.90;;;-141.84;67.80;21873.16;5022796;28;20271;-63
2023/09/13 09:36:10;;;;;;;2.47;2.28;;;22.80;99.90;;;-141.84;67.55;21909.75;5021830;28;20312;-61
2023/09/13 09:38:38;;;;;;;3.60;2.53;;;22.80;99.90;;;-141.84;66.91;21948.41;5016632;28;20292;-61
2023/09/13 09:41:07;;;;;;;4.13;2.78;;;22.80;99.90;;;-141.84;66.63;21970.78;5023497;28;20233;-61
2023/09/13 09:43:36;;;;;;;3.78;2.72;;;23.00;99.90;;;-141.84;68.43;21881.28;5022702;28;20229;-60
2023/09/13 09:46:04;;;;;;;2.25;2.10;;;22.90;99.90;;;-141.84;66.55;21936.19;5035592;28;20221;-65
2023/09/13 09:48:32;;;;;;;3.10;2.35;;;22.90;99.90;;;-141.84;66.01;21972.81;5034450;28;20459;-64
2023/09/13 09:51:00;;;;;;;3.03;2.83;;;23.00;99.90;;;-141.84;67.42;21860.97;5045685;28;20228;-67
2023/09/13 09:53:30;;;;;;;3.08;2.88;;;22.70;99.90;;;-141.84;69.04;21797.94;5046164;28;20276;-64
2023/09/13 09:55:58;;;;;;;2.85;2.63;;;22.50;99.90;;;-141.84;68.99;21751.16;5046072;28;20232;-61
2023/09/13 09:58:27;;;;;;;3.08;2.88;;;22.50;99.90;;;-141.84;69.94;21793.84;5022073;28;20739;-62
2023/09/13 10:00:55;;;;;;;3.05;2.80;;;22.50;99.90;;;-141.84;68.83;21842.66;5026837;28;20216;-62
2023/09/13 10:03:24;;;;;;;2.88;2.67;;;22.60;99.90;;;-141.84;67.94;21968.72;5026450;28;20304;-61
2023/09/13 10:06:01;;;;;;;2.45;2.30;;;22.90;99.90;;;-141.84;66.19;22074.47;5034117;28;20233;-61
2023/09/13 10:08:42;;;;;;;3.92;2.80;;;23.20;99.90;;;-141.84;65.15;22078.53;5033688;28;20857;-65
2023/09/13 10:11:17;;;;;;;2.72;2.45;;;23.20;99.90;;;-141.84;64.42;22166.00;5044253;28;20251;-63
2023/09/13 10:13:46;;;;;;;3.08;2.80;;;23.40;99.90;;;-141.84;62.48;22243.25;5045919;28;20304;-65